Impacts METAR Board
IDs:

KTPA - Tampa Intl Arpt, FL, US

Updated at: 2100 UTC 21 Sep 2021
Potential Impact None Slight Moderate High
Time 21/09Z 21/10Z 21/11Z 21/12Z 21/13Z 21/14Z 21/15Z 21/16Z 21/17Z 21/18Z 21/19Z 21/20Z 21/21Z
Temp78 77 77 78 81 83 85 86 88 89 89 90 90
Dewpt72 72 72 71 72 73 73 74 72 73 74 75 76
Altim29.99 30.00 30.02 30.05 30.06 30.07 30.08 30.07 30.06 30.04 30.01 29.98 29.98
VIS10 10 10 10 10 10 10 10 10 10 10 10 10
CIG180 180 -- -- -- -- -- -- -- -- -- -- 250
CoverBKNBKNSCTFEWFEWFEWFEWSCTSCTSCTSCTSCTBKN
FltCatVFRVFRVFRVFRVFRVFRVFRVFRVFRVFRVFRVFRVFR
WX--------------------------
WDir0008000240230260240220250270
WSpd0 0 0 4 0 4 4 7 6 4 5 8 11
WGst-- -- -- -- -- -- -- -- -- -- -- -- --
Raw hourly METARs
KTPA 210853Z 00000KT 10SM SCT090 BKN180 26/22 A2999 RMK AO2 SLP156 T02560222 55009 $
KTPA 210953Z 00000KT 10SM SCT090 BKN180 25/22 A3000 RMK AO2 SLP159 T02500222 $
KTPA 211053Z 00000KT 10SM FEW080 SCT180 25/22 A3002 RMK AO2 SLP167 T02500222
KTPA 211153Z 08004KT 10SM FEW015 FEW180 26/22 A3005 RMK AO2 SLP174 CB DSNT NW T02560217 10267 20244 53018 $
KTPA 211253Z 00000KT 10SM FEW020 FEW180 27/22 A3006 RMK AO2 SLP177 CB DSNT W-NW T02720222
KTPA 211353Z VRB04KT 10SM FEW020 FEW200 28/23 A3007 RMK AO2 SLP181 CB DSNT NW T02830228
KTPA 211453Z 24004KT 10SM FEW025 FEW200 29/23 A3008 RMK AO2 SLP184 TCU DSNT W T02940228 52010
KTPA 211553Z 23007KT 10SM FEW025 SCT200 30/23 A3007 RMK AO2 SLP182 CB DSNT W T03000233
KTPA 211653Z 26006KT 10SM SCT035 SCT200 31/22 A3006 RMK AO2 SLP180 CB DSNT W T03110222
KTPA 211753Z 24004KT 10SM SCT035 SCT250 32/23 A3004 RMK AO2 SLP172 T03170228 10317 20256 58013
KTPA 211853Z 22005KT 10SM SCT035CB SCT250 32/23 A3001 RMK AO2 SLP162 CB S MOV SE CB DSNT NE-SE T03170233
KTPA 211953Z 25008KT 10SM SCT036 SCT250 32/24 A2998 RMK AO2 LTG DSNT E SLP152 CB DSNT E-S T03220239
KTPA 212053Z 27011KT 10SM FEW026 SCT037CB SCT140 BKN250 32/24 A2998 RMK AO2 LTG DSNT E AND SE SLP150 CB N-S MOV LTL T03220244 56021



Page loaded:  21:15 UTC  |   02:15 PM Pacific  |   03:15 PM Mountain  |   04:15 PM Central  |   05:15 PM Eastern

 

ADVISORIES

FORECASTS

FORECASTS

OBSERVATIONS

USER TOOLS

ABOUT US